sensor_id;sensor_type;location;lat;lon;timestamp;pressure;altitude;pressure_sealevel;temperature;humidity
84022;BME280;74108;48.636;9.492;2024-02-23T00:02:03;95894.81;;;6.74;84.35
84022;BME280;74108;48.636;9.492;2024-02-23T00:04:28;95893.19;;;6.83;84.80
84022;BME280;74108;48.636;9.492;2024-02-23T00:06:54;95879.91;;;6.84;83.46
84022;BME280;74108;48.636;9.492;2024-02-23T00:09:19;95883.50;;;6.88;82.81
84022;BME280;74108;48.636;9.492;2024-02-23T00:11:44;95876.97;;;6.91;81.04
84022;BME280;74108;48.636;9.492;2024-02-23T00:14:11;95883.97;;;6.95;80.56
84022;BME280;74108;48.636;9.492;2024-02-23T00:16:40;95898.53;;;7.01;80.47
84022;BME280;74108;48.636;9.492;2024-02-23T00:19:08;95899.31;;;7.02;80.52
84022;BME280;74108;48.636;9.492;2024-02-23T00:21:34;95902.47;;;6.94;80.57
84022;BME280;74108;48.636;9.492;2024-02-23T00:23:59;95892.34;;;6.92;79.94
84022;BME280;74108;48.636;9.492;2024-02-23T00:26:24;95903.00;;;6.91;79.94
84022;BME280;74108;48.636;9.492;2024-02-23T00:28:50;95915.78;;;6.92;79.76
84022;BME280;74108;48.636;9.492;2024-02-23T00:31:15;95921.69;;;7.03;79.31
84022;BME280;74108;48.636;9.492;2024-02-23T00:33:40;95934.22;;;7.01;80.87
84022;BME280;74108;48.636;9.492;2024-02-23T00:36:07;95953.00;;;6.93;82.25
84022;BME280;74108;48.636;9.492;2024-02-23T00:38:33;95961.81;;;7.02;81.95
84022;BME280;74108;48.636;9.492;2024-02-23T00:40:58;95964.44;;;6.97;82.66
84022;BME280;74108;48.636;9.492;2024-02-23T00:43:23;95941.78;;;6.97;81.11
84022;BME280;74108;48.636;9.492;2024-02-23T00:45:49;95952.44;;;6.96;80.69
84022;BME280;74108;48.636;9.492;2024-02-23T00:48:15;95949.38;;;6.89;81.20
84022;BME280;74108;48.636;9.492;2024-02-23T00:50:40;95947.53;;;6.89;81.68
84022;BME280;74108;48.636;9.492;2024-02-23T00:53:06;95945.72;;;6.95;80.87
84022;BME280;74108;48.636;9.492;2024-02-23T00:55:31;95954.81;;;6.92;81.31
84022;BME280;74108;48.636;9.492;2024-02-23T00:57:56;95950.44;;;6.88;79.47
84022;BME280;74108;48.636;9.492;2024-02-23T01:00:22;95961.97;;;6.72;80.51
84022;BME280;74108;48.636;9.492;2024-02-23T01:02:48;95969.22;;;6.75;80.11
84022;BME280;74108;48.636;9.492;2024-02-23T01:05:13;95971.56;;;6.76;79.18
84022;BME280;74108;48.636;9.492;2024-02-23T01:07:39;95975.50;;;6.69;80.45
84022;BME280;74108;48.636;9.492;2024-02-23T01:10:05;95980.72;;;6.59;81.17
84022;BME280;74108;48.636;9.492;2024-02-23T01:12:30;95971.41;;;6.53;78.74
84022;BME280;74108;48.636;9.492;2024-02-23T01:14:56;95977.38;;;6.53;78.87
84022;BME280;74108;48.636;9.492;2024-02-23T01:17:21;95972.72;;;6.50;79.48
84022;BME280;74108;48.636;9.492;2024-02-23T01:19:46;95964.91;;;6.45;79.29
84022;BME280;74108;48.636;9.492;2024-02-23T01:22:40;95962.81;;;6.52;78.70
84022;BME280;74108;48.636;9.492;2024-02-23T01:25:06;95964.91;;;6.45;79.23
84022;BME280;74108;48.636;9.492;2024-02-23T01:27:31;95959.19;;;6.48;78.30
84022;BME280;74108;48.636;9.492;2024-02-23T01:29:56;95964.69;;;6.36;80.24
84022;BME280;74108;48.636;9.492;2024-02-23T01:32:22;95964.69;;;6.42;78.86
84022;BME280;74108;48.636;9.492;2024-02-23T01:34:47;95971.47;;;6.38;78.90
84022;BME280;74108;48.636;9.492;2024-02-23T01:37:14;95977.41;;;6.38;77.99
84022;BME280;74108;48.636;9.492;2024-02-23T01:39:39;95982.63;;;6.38;78.66
84022;BME280;74108;48.636;9.492;2024-02-23T01:42:05;95989.41;;;6.34;79.60
84022;BME280;74108;48.636;9.492;2024-02-23T01:44:30;95984.22;;;6.29;79.59
84022;BME280;74108;48.636;9.492;2024-02-23T01:46:56;95987.81;;;6.38;77.91
84022;BME280;74108;48.636;9.492;2024-02-23T01:49:21;95975.88;;;6.37;78.44
84022;BME280;74108;48.636;9.492;2024-02-23T01:51:48;95982.63;;;6.38;79.04
84022;BME280;74108;48.636;9.492;2024-02-23T01:54:15;95978.47;;;6.42;78.05
84022;BME280;74108;48.636;9.492;2024-02-23T01:56:41;95984.44;;;6.43;79.21
84022;BME280;74108;48.636;9.492;2024-02-23T01:59:10;95981.59;;;6.44;77.54
84022;BME280;74108;48.636;9.492;2024-02-23T02:01:36;95982.88;;;6.42;77.97
84022;BME280;74108;48.636;9.492;2024-02-23T02:04:01;95982.38;;;6.40;78.25
84022;BME280;74108;48.636;9.492;2024-02-23T02:06:27;95984.72;;;6.31;78.49
84022;BME280;74108;48.636;9.492;2024-02-23T02:08:53;95978.78;;;6.30;79.04
84022;BME280;74108;48.636;9.492;2024-02-23T02:11:19;95980.31;;;6.36;78.15
84022;BME280;74108;48.636;9.492;2024-02-23T02:13:44;95981.31;;;6.41;78.81
84022;BME280;74108;48.636;9.492;2024-02-23T02:16:09;95985.25;;;6.33;79.29
84022;BME280;74108;48.636;9.492;2024-02-23T02:18:36;95993.06;;;6.33;78.26
84022;BME280;74108;48.636;9.492;2024-02-23T02:21:01;95984.19;;;6.44;77.50
84022;BME280;74108;48.636;9.492;2024-02-23T02:23:26;95988.63;;;6.38;76.79
84022;BME280;74108;48.636;9.492;2024-02-23T02:25:56;95986.00;;;6.38;78.10
84022;BME280;74108;48.636;9.492;2024-02-23T02:28:22;95987.88;;;6.28;78.74
84022;BME280;74108;48.636;9.492;2024-02-23T02:30:49;95990.19;;;6.34;76.97
84022;BME280;74108;48.636;9.492;2024-02-23T02:33:14;95980.53;;;6.40;77.92
84022;BME280;74108;48.636;9.492;2024-02-23T02:35:40;95986.28;;;6.37;77.59
84022;BME280;74108;48.636;9.492;2024-02-23T02:38:05;95980.81;;;6.44;76.48
84022;BME280;74108;48.636;9.492;2024-02-23T02:40:30;95974.28;;;6.46;77.18
84022;BME280;74108;48.636;9.492;2024-02-23T02:42:57;95983.13;;;6.45;76.95
84022;BME280;74108;48.636;9.492;2024-02-23T02:45:22;95980.28;;;6.47;77.24
84022;BME280;74108;48.636;9.492;2024-02-23T02:47:48;95989.38;;;6.44;76.48
84022;BME280;74108;48.636;9.492;2024-02-23T02:50:13;95992.50;;;6.46;77.80
84022;BME280;74108;48.636;9.492;2024-02-23T02:52:39;95975.59;;;6.49;75.69
84022;BME280;74108;48.636;9.492;2024-02-23T02:55:04;95974.50;;;6.55;76.24
84022;BME280;74108;48.636;9.492;2024-02-23T02:57:30;95982.09;;;6.41;76.38
84022;BME280;74108;48.636;9.492;2024-02-23T02:59:55;95987.03;;;6.43;76.44
84022;BME280;74108;48.636;9.492;2024-02-23T03:02:20;95989.13;;;6.46;76.36
84022;BME280;74108;48.636;9.492;2024-02-23T03:04:49;95987.03;;;6.43;75.05
84022;BME280;74108;48.636;9.492;2024-02-23T03:07:16;95990.41;;;6.48;75.34
84022;BME280;74108;48.636;9.492;2024-02-23T03:09:41;95983.91;;;6.46;75.84
84022;BME280;74108;48.636;9.492;2024-02-23T03:12:07;95981.28;;;6.56;75.24
84022;BME280;74108;48.636;9.492;2024-02-23T03:14:33;95983.88;;;6.56;75.21
84022;BME280;74108;48.636;9.492;2024-02-23T03:16:59;95981.28;;;6.51;75.47
84022;BME280;74108;48.636;9.492;2024-02-23T03:19:24;95992.19;;;6.63;75.13
84022;BME280;74108;48.636;9.492;2024-02-23T03:21:51;95976.06;;;6.61;75.19
84022;BME280;74108;48.636;9.492;2024-02-23T03:24:16;95978.44;;;6.47;76.24
84022;BME280;74108;48.636;9.492;2024-02-23T03:26:42;95987.78;;;6.53;74.74
84022;BME280;74108;48.636;9.492;2024-02-23T03:29:08;95979.78;;;6.45;75.84
84022;BME280;74108;48.636;9.492;2024-02-23T03:31:34;95955.28;;;6.51;75.43
84022;BME280;74108;48.636;9.492;2024-02-23T03:34:00;95955.78;;;6.58;73.67
84022;BME280;74108;48.636;9.492;2024-02-23T03:36:25;95961.78;;;6.48;75.08
84022;BME280;74108;48.636;9.492;2024-02-23T03:38:50;95986.22;;;6.52;76.30
84022;BME280;74108;48.636;9.492;2024-02-23T03:41:16;95998.19;;;6.53;75.15
84022;BME280;74108;48.636;9.492;2024-02-23T03:43:41;95997.94;;;6.50;74.92
84022;BME280;74108;48.636;9.492;2024-02-23T03:46:06;95996.91;;;6.56;74.85
84022;BME280;74108;48.636;9.492;2024-02-23T03:48:32;96001.00;;;6.72;75.26
84022;BME280;74108;48.636;9.492;2024-02-23T03:50:57;96016.91;;;6.55;74.01
84022;BME280;74108;48.636;9.492;2024-02-23T03:53:23;96026.81;;;6.53;75.70
84022;BME280;74108;48.636;9.492;2024-02-23T03:55:48;96006.50;;;6.60;75.11
84022;BME280;74108;48.636;9.492;2024-02-23T03:58:13;96000.50;;;6.60;74.42
84022;BME280;74108;48.636;9.492;2024-02-23T04:00:39;95994.00;;;6.62;75.28
84022;BME280;74108;48.636;9.492;2024-02-23T04:03:04;96003.13;;;6.50;74.76
84022;BME280;74108;48.636;9.492;2024-02-23T04:05:30;95999.78;;;6.44;74.33
84022;BME280;74108;48.636;9.492;2024-02-23T04:07:55;96011.75;;;6.40;76.62
84022;BME280;74108;48.636;9.492;2024-02-23T04:10:20;96012.00;;;6.49;75.17
84022;BME280;74108;48.636;9.492;2024-02-23T04:12:46;96016.72;;;6.36;75.60
84022;BME280;74108;48.636;9.492;2024-02-23T04:15:12;96004.44;;;6.47;74.23
84022;BME280;74108;48.636;9.492;2024-02-23T04:17:37;95994.56;;;6.49;73.60
84022;BME280;74108;48.636;9.492;2024-02-23T04:20:06;96001.34;;;6.40;74.90
84022;BME280;74108;48.636;9.492;2024-02-23T04:22:32;96014.09;;;6.36;74.39
84022;BME280;74108;48.636;9.492;2024-02-23T04:24:57;96014.09;;;6.36;74.55
84022;BME280;74108;48.636;9.492;2024-02-23T04:27:22;96003.19;;;6.34;74.78
84022;BME280;74108;48.636;9.492;2024-02-23T04:29:48;96006.31;;;6.31;75.15
84022;BME280;74108;48.636;9.492;2024-02-23T04:32:13;96013.31;;;6.36;73.52
84022;BME280;74108;48.636;9.492;2024-02-23T04:34:39;96001.63;;;6.38;74.70
84022;BME280;74108;48.636;9.492;2024-02-23T04:37:05;95999.00;;;6.44;74.89
84022;BME280;74108;48.636;9.492;2024-02-23T04:39:30;96004.22;;;6.33;73.20
84022;BME280;74108;48.636;9.492;2024-02-23T04:41:56;96009.41;;;6.38;74.13
84022;BME280;74108;48.636;9.492;2024-02-23T04:44:22;96013.88;;;6.33;74.20
84022;BME280;74108;48.636;9.492;2024-02-23T04:46:51;96016.47;;;6.33;73.79
84022;BME280;74108;48.636;9.492;2024-02-23T04:49:16;95994.59;;;6.44;72.75
84022;BME280;74108;48.636;9.492;2024-02-23T04:51:41;95989.34;;;6.54;72.51
84022;BME280;74108;48.636;9.492;2024-02-23T04:54:07;95989.34;;;6.54;72.30
84022;BME280;74108;48.636;9.492;2024-02-23T04:56:32;96012.50;;;6.61;71.72
84022;BME280;74108;48.636;9.492;2024-02-23T04:58:58;96008.09;;;6.51;73.05
84022;BME280;74108;48.636;9.492;2024-02-23T05:01:24;96013.25;;;6.56;73.16
84022;BME280;74108;48.636;9.492;2024-02-23T05:03:49;96000.03;;;6.48;73.53
84022;BME280;74108;48.636;9.492;2024-02-23T05:06:15;95992.72;;;6.50;71.90
84022;BME280;74108;48.636;9.492;2024-02-23T05:08:40;96001.81;;;6.57;72.63
84022;BME280;74108;48.636;9.492;2024-02-23T05:11:06;96005.50;;;6.51;72.02
84022;BME280;74108;48.636;9.492;2024-02-23T05:13:31;96000.78;;;6.58;71.62
84022;BME280;74108;48.636;9.492;2024-02-23T05:15:57;95992.44;;;6.56;73.10
84022;BME280;74108;48.636;9.492;2024-02-23T05:18:22;96009.13;;;6.45;73.11
84022;BME280;74108;48.636;9.492;2024-02-23T05:20:48;96019.88;;;6.28;74.12
84022;BME280;74108;48.636;9.492;2024-02-23T05:23:14;96027.94;;;6.17;74.56
84022;BME280;74108;48.636;9.492;2024-02-23T05:25:41;96028.22;;;5.95;75.57
84022;BME280;74108;48.636;9.492;2024-02-23T05:28:07;96024.03;;;5.94;74.51
84022;BME280;74108;48.636;9.492;2024-02-23T05:30:32;96016.25;;;5.99;74.33
84022;BME280;74108;48.636;9.492;2024-02-23T05:32:58;96013.91;;;6.03;74.47
84022;BME280;74108;48.636;9.492;2024-02-23T05:35:26;96014.69;;;6.03;74.20
84022;BME280;74108;48.636;9.492;2024-02-23T05:37:54;96024.56;;;6.01;74.74
84022;BME280;74108;48.636;9.492;2024-02-23T05:40:20;96023.78;;;6.06;75.42
84022;BME280;74108;48.636;9.492;2024-02-23T05:42:46;96017.03;;;6.10;76.01
84022;BME280;74108;48.636;9.492;2024-02-23T05:45:11;96025.59;;;6.10;75.18
84022;BME280;74108;48.636;9.492;2024-02-23T05:47:40;96030.28;;;6.08;75.18
84022;BME280;74108;48.636;9.492;2024-02-23T05:50:08;96021.97;;;6.01;76.76
84022;BME280;74108;48.636;9.492;2024-02-23T05:52:34;96023.25;;;5.99;76.85
84022;BME280;74108;48.636;9.492;2024-02-23T05:55:02;96027.16;;;6.01;75.83
84022;BME280;74108;48.636;9.492;2024-02-23T05:57:27;96035.75;;;6.12;75.75
84022;BME280;74108;48.636;9.492;2024-02-23T05:59:53;96043.28;;;6.08;76.13
84022;BME280;74108;48.636;9.492;2024-02-23T06:02:18;96042.75;;;6.01;75.08
84022;BME280;74108;48.636;9.492;2024-02-23T06:04:44;96037.03;;;5.94;75.20
84022;BME280;74108;48.636;9.492;2024-02-23T06:07:10;96053.94;;;5.87;75.42
84022;BME280;74108;48.636;9.492;2024-02-23T06:09:36;96053.41;;;5.80;76.66
84022;BME280;74108;48.636;9.492;2024-02-23T06:12:01;96058.31;;;5.76;76.38
84022;BME280;74108;48.636;9.492;2024-02-23T06:14:26;96069.75;;;5.75;76.65
84022;BME280;74108;48.636;9.492;2024-02-23T06:16:52;96070.78;;;5.69;76.24
84022;BME280;74108;48.636;9.492;2024-02-23T06:19:17;96056.50;;;5.77;77.56
84022;BME280;74108;48.636;9.492;2024-02-23T06:21:42;96056.78;;;5.80;76.45
84022;BME280;74108;48.636;9.492;2024-02-23T06:24:08;96049.75;;;5.76;77.00
84022;BME280;74108;48.636;9.492;2024-02-23T06:26:34;96051.03;;;5.78;76.43
84022;BME280;74108;48.636;9.492;2024-02-23T06:29:00;96047.69;;;5.73;77.39
84022;BME280;74108;48.636;9.492;2024-02-23T06:31:25;96049.50;;;5.77;77.71
84022;BME280;74108;48.636;9.492;2024-02-23T06:33:50;96052.66;;;5.84;77.90
84022;BME280;74108;48.636;9.492;2024-02-23T06:36:17;96042.25;;;5.84;77.39
84022;BME280;74108;48.636;9.492;2024-02-23T06:38:44;96041.72;;;5.82;77.02
84022;BME280;74108;48.636;9.492;2024-02-23T06:41:11;96044.84;;;5.84;78.21
84022;BME280;74108;48.636;9.492;2024-02-23T06:43:37;96051.59;;;5.80;77.17
84022;BME280;74108;48.636;9.492;2024-02-23T06:46:09;96042.72;;;5.76;77.52
84022;BME280;74108;48.636;9.492;2024-02-23T06:48:38;96048.47;;;5.68;77.27
84022;BME280;74108;48.636;9.492;2024-02-23T06:51:04;96043.25;;;5.63;77.50
84022;BME280;74108;48.636;9.492;2024-02-23T06:53:30;96047.16;;;5.71;76.63
84022;BME280;74108;48.636;9.492;2024-02-23T06:55:55;96041.19;;;5.75;76.81
84022;BME280;74108;48.636;9.492;2024-02-23T06:58:21;96030.00;;;5.75;76.82
84022;BME280;74108;48.636;9.492;2024-02-23T07:00:46;96033.38;;;5.65;76.94
84022;BME280;74108;48.636;9.492;2024-02-23T07:03:12;96039.38;;;5.71;74.79
84022;BME280;74108;48.636;9.492;2024-02-23T07:05:37;96048.19;;;5.75;74.28
84022;BME280;74108;48.636;9.492;2024-02-23T07:08:03;96046.09;;;5.72;74.28
84022;BME280;74108;48.636;9.492;2024-02-23T07:10:28;96052.09;;;5.82;72.22
84022;BME280;74108;48.636;9.492;2024-02-23T07:12:54;96065.09;;;5.87;72.94
84022;BME280;74108;48.636;9.492;2024-02-23T07:15:21;96069.53;;;5.97;72.34
84022;BME280;74108;48.636;9.492;2024-02-23T07:17:46;96072.13;;;6.02;72.31
84022;BME280;74108;48.636;9.492;2024-02-23T07:20:12;96074.47;;;6.13;71.00
84022;BME280;74108;48.636;9.492;2024-02-23T07:22:37;96071.09;;;5.93;71.30
84022;BME280;74108;48.636;9.492;2024-02-23T07:25:04;96074.97;;;6.10;71.85
84022;BME280;74108;48.636;9.492;2024-02-23T07:27:30;96083.31;;;6.12;71.16
84022;BME280;74108;48.636;9.492;2024-02-23T07:29:56;96072.91;;;6.38;70.43
84022;BME280;74108;48.636;9.492;2024-02-23T07:32:21;96080.94;;;6.46;69.26
84022;BME280;74108;48.636;9.492;2024-02-23T07:34:47;96083.28;;;6.43;69.44
84022;BME280;74108;48.636;9.492;2024-02-23T07:37:13;96079.59;;;6.59;69.41
84022;BME280;74108;48.636;9.492;2024-02-23T07:39:38;96077.78;;;6.59;68.78
84022;BME280;74108;48.636;9.492;2024-02-23T07:42:04;96072.88;;;6.43;69.37
84022;BME280;74108;48.636;9.492;2024-02-23T07:44:31;96071.84;;;6.38;69.97
84022;BME280;74108;48.636;9.492;2024-02-23T07:46:56;96072.63;;;6.39;70.66
84022;BME280;74108;48.636;9.492;2024-02-23T07:49:23;96073.66;;;6.48;69.90
84022;BME280;74108;48.636;9.492;2024-02-23T07:51:49;96069.75;;;6.56;69.43
84022;BME280;74108;48.636;9.492;2024-02-23T07:54:14;96071.28;;;6.67;70.04
84022;BME280;74108;48.636;9.492;2024-02-23T07:56:40;96067.09;;;6.71;70.60
84022;BME280;74108;48.636;9.492;2024-02-23T07:59:05;96076.22;;;6.63;70.50
84022;BME280;74108;48.636;9.492;2024-02-23T08:01:31;96066.34;;;6.65;68.19
84022;BME280;74108;48.636;9.492;2024-02-23T08:03:57;96064.25;;;6.57;68.61
84022;BME280;74108;48.636;9.492;2024-02-23T08:06:22;96067.66;;;6.58;69.73
84022;BME280;74108;48.636;9.492;2024-02-23T08:08:48;96071.00;;;6.73;68.31
84022;BME280;74108;48.636;9.492;2024-02-23T08:11:13;96068.69;;;6.57;69.38
84022;BME280;74108;48.636;9.492;2024-02-23T08:13:39;96072.56;;;6.74;67.94
84022;BME280;74108;48.636;9.492;2024-02-23T08:16:05;96079.34;;;6.65;68.61
84022;BME280;74108;48.636;9.492;2024-02-23T08:18:31;96074.38;;;6.74;66.42
84022;BME280;74108;48.636;9.492;2024-02-23T08:20:58;96089.19;;;6.73;67.91
84022;BME280;74108;48.636;9.492;2024-02-23T08:23:23;96072.50;;;6.84;68.21
84022;BME280;74108;48.636;9.492;2024-02-23T08:25:49;96082.38;;;6.92;67.04
84022;BME280;74108;48.636;9.492;2024-02-23T08:28:15;96086.00;;;7.01;66.54
84022;BME280;74108;48.636;9.492;2024-02-23T08:30:41;96084.19;;;6.97;66.92
84022;BME280;74108;48.636;9.492;2024-02-23T08:33:06;96087.53;;;7.02;67.32
84022;BME280;74108;48.636;9.492;2024-02-23T08:35:34;96085.44;;;7.09;66.70
84022;BME280;74108;48.636;9.492;2024-02-23T08:37:59;96076.50;;;7.26;66.92
84022;BME280;74108;48.636;9.492;2024-02-23T08:40:25;96085.88;;;7.32;65.07
84022;BME280;74108;48.636;9.492;2024-02-23T08:42:50;96083.75;;;7.39;65.56
84022;BME280;74108;48.636;9.492;2024-02-23T08:45:17;96084.56;;;7.34;65.22
84022;BME280;74108;48.636;9.492;2024-02-23T08:47:43;96074.84;;;7.45;65.77
84022;BME280;74108;48.636;9.492;2024-02-23T08:50:09;96082.66;;;7.45;64.69
84022;BME280;74108;48.636;9.492;2024-02-23T08:52:34;96078.50;;;7.44;63.90
84022;BME280;74108;48.636;9.492;2024-02-23T08:55:00;96072.97;;;7.55;63.74
84022;BME280;74108;48.636;9.492;2024-02-23T08:57:27;96082.81;;;7.63;63.82
84022;BME280;74108;48.636;9.492;2024-02-23T08:59:53;96065.69;;;7.52;61.63
84022;BME280;74108;48.636;9.492;2024-02-23T09:02:19;96084.78;;;7.43;62.33
84022;BME280;74108;48.636;9.492;2024-02-23T09:04:45;96084.25;;;7.41;62.77
84022;BME280;74108;48.636;9.492;2024-02-23T09:07:11;96083.75;;;7.39;63.70
84022;BME280;74108;48.636;9.492;2024-02-23T09:09:37;96087.06;;;7.54;63.42
84022;BME280;74108;48.636;9.492;2024-02-23T09:12:02;96088.97;;;7.39;62.30
84022;BME280;74108;48.636;9.492;2024-02-23T09:14:28;96082.31;;;7.13;61.49
84022;BME280;74108;48.636;9.492;2024-02-23T09:16:53;96076.25;;;7.27;63.08
84022;BME280;74108;48.636;9.492;2024-02-23T09:19:19;96090.19;;;7.51;62.75
84022;BME280;74108;48.636;9.492;2024-02-23T09:21:45;96094.88;;;7.49;62.88
84022;BME280;74108;48.636;9.492;2024-02-23T09:24:11;96099.13;;;7.35;63.12
84022;BME280;74108;48.636;9.492;2024-02-23T09:26:36;96096.81;;;7.29;62.09
84022;BME280;74108;48.636;9.492;2024-02-23T09:29:01;96095.84;;;7.15;61.46
84022;BME280;74108;48.636;9.492;2024-02-23T09:31:27;96101.81;;;7.20;60.29
84022;BME280;74108;48.636;9.492;2024-02-23T09:33:56;96099.41;;;7.34;62.96
84022;BME280;74108;48.636;9.492;2024-02-23T09:36:22;96109.75;;;7.44;63.17
84022;BME280;74108;48.636;9.492;2024-02-23T09:38:47;96104.03;;;7.47;61.81
84022;BME280;74108;48.636;9.492;2024-02-23T09:41:21;96102.56;;;7.26;64.03
84022;BME280;74108;48.636;9.492;2024-02-23T09:43:48;96102.31;;;7.27;65.30
84022;BME280;74108;48.636;9.492;2024-02-23T09:46:18;96103.22;;;7.46;65.48
84022;BME280;74108;48.636;9.492;2024-02-23T09:48:44;96102.09;;;7.62;65.48
84022;BME280;74108;48.636;9.492;2024-02-23T09:51:14;96105.53;;;7.58;61.45
84022;BME280;74108;48.636;9.492;2024-02-23T09:53:41;96110.72;;;7.63;63.37
84022;BME280;74108;48.636;9.492;2024-02-23T09:56:08;96109.16;;;7.62;61.16
84022;BME280;74108;48.636;9.492;2024-02-23T09:58:39;96121.22;;;7.48;62.92
84022;BME280;74108;48.636;9.492;2024-02-23T10:01:04;96106.78;;;7.65;61.56
84022;BME280;74108;48.636;9.492;2024-02-23T10:03:30;96103.31;;;7.80;62.76
84022;BME280;74108;48.636;9.492;2024-02-23T10:05:59;96098.00;;;7.95;60.85
84022;BME280;74108;48.636;9.492;2024-02-23T10:08:27;96097.34;;;8.08;60.86
84022;BME280;74108;48.636;9.492;2024-02-23T10:10:52;96103.88;;;8.11;60.24
84022;BME280;74108;48.636;9.492;2024-02-23T10:13:22;96107.56;;;8.05;59.75
84022;BME280;74108;48.636;9.492;2024-02-23T10:15:49;96123.06;;;8.30;60.41
84022;BME280;74108;48.636;9.492;2024-02-23T10:18:15;96117.34;;;8.23;59.27
84022;BME280;74108;48.636;9.492;2024-02-23T10:20:41;96119.75;;;8.14;59.04
84022;BME280;74108;48.636;9.492;2024-02-23T10:23:09;96125.94;;;8.28;59.77
84022;BME280;74108;48.636;9.492;2024-02-23T10:25:35;96127.00;;;8.22;58.80
84022;BME280;74108;48.636;9.492;2024-02-23T10:28:02;96119.47;;;8.16;58.31
84022;BME280;74108;48.636;9.492;2024-02-23T10:30:28;96122.75;;;7.98;58.60
84022;BME280;74108;48.636;9.492;2024-02-23T10:32:56;96114.06;;;8.07;58.92
84022;BME280;74108;48.636;9.492;2024-02-23T10:35:23;96111.75;;;8.06;60.87
84022;BME280;74108;48.636;9.492;2024-02-23T10:37:50;96117.66;;;8.16;59.98
84022;BME280;74108;48.636;9.492;2024-02-23T10:40:17;96113.78;;;8.09;59.88
84022;BME280;74108;48.636;9.492;2024-02-23T10:42:47;96121.81;;;8.56;59.27
84022;BME280;74108;48.636;9.492;2024-02-23T10:45:20;96121.22;;;8.59;58.91
84022;BME280;74108;48.636;9.492;2024-02-23T10:47:53;96123.13;;;8.54;58.48
84022;BME280;74108;48.636;9.492;2024-02-23T10:50:20;96117.06;;;8.58;57.83
84022;BME280;74108;48.636;9.492;2024-02-23T10:52:47;96108.69;;;8.61;56.96
84022;BME280;74108;48.636;9.492;2024-02-23T10:55:14;96104.41;;;8.46;57.16
84022;BME280;74108;48.636;9.492;2024-02-23T10:57:39;96108.09;;;8.40;58.66
84022;BME280;74108;48.636;9.492;2024-02-23T11:00:05;96100.50;;;8.44;58.74
84022;BME280;74108;48.636;9.492;2024-02-23T11:02:37;96105.84;;;8.58;56.00
84022;BME280;74108;48.636;9.492;2024-02-23T11:05:04;96100.38;;;8.25;56.83
84022;BME280;74108;48.636;9.492;2024-02-23T11:07:30;96098.44;;;8.41;57.74
84022;BME280;74108;48.636;9.492;2024-02-23T11:09:58;96097.28;;;8.18;57.60
84022;BME280;74108;48.636;9.492;2024-02-23T11:12:25;96109.00;;;8.26;57.12
84022;BME280;74108;48.636;9.492;2024-02-23T11:14:56;96096.78;;;8.50;57.18
84022;BME280;74108;48.636;9.492;2024-02-23T11:17:22;96098.53;;;8.60;55.94
84022;BME280;74108;48.636;9.492;2024-02-23T11:19:51;96089.78;;;8.74;56.26
84022;BME280;74108;48.636;9.492;2024-02-23T11:22:24;96090.47;;;8.56;54.97
84022;BME280;74108;48.636;9.492;2024-02-23T11:24:50;96093.91;;;8.52;57.74
84022;BME280;74108;48.636;9.492;2024-02-23T11:27:16;96091.72;;;8.35;56.28
84022;BME280;74108;48.636;9.492;2024-02-23T11:29:43;96085.72;;;8.34;56.31
84022;BME280;74108;48.636;9.492;2024-02-23T11:32:14;96091.97;;;8.33;58.70
84022;BME280;74108;48.636;9.492;2024-02-23T11:34:39;96073.44;;;8.35;56.82
84022;BME280;74108;48.636;9.492;2024-02-23T11:37:11;96077.28;;;8.42;58.31
84022;BME280;74108;48.636;9.492;2024-02-23T11:40:04;96086.38;;;8.45;56.54
84022;BME280;74108;48.636;9.492;2024-02-23T11:42:33;96090.13;;;8.34;56.88
84022;BME280;74108;48.636;9.492;2024-02-23T11:44:58;96089.28;;;8.43;56.93
84022;BME280;74108;48.636;9.492;2024-02-23T11:47:25;96095.69;;;8.56;56.64
84022;BME280;74108;48.636;9.492;2024-02-23T11:49:51;96089.19;;;8.77;55.62
84022;BME280;74108;48.636;9.492;2024-02-23T11:52:16;96083.97;;;8.77;56.23
84022;BME280;74108;48.636;9.492;2024-02-23T11:54:42;96088.94;;;8.50;57.81
84022;BME280;74108;48.636;9.492;2024-02-23T11:57:07;96085.91;;;8.04;58.78
84022;BME280;74108;48.636;9.492;2024-02-23T11:59:33;96085.81;;;8.19;58.08
84022;BME280;74108;48.636;9.492;2024-02-23T12:01:58;96087.84;;;8.22;59.27
84022;BME280;74108;48.636;9.492;2024-02-23T12:04:26;96079.66;;;8.05;58.45
84022;BME280;74108;48.636;9.492;2024-02-23T12:06:52;96075.59;;;8.23;58.10
84022;BME280;74108;48.636;9.492;2024-02-23T12:09:17;96066.63;;;8.39;57.59
84022;BME280;74108;48.636;9.492;2024-02-23T12:11:43;96061.47;;;8.58;57.72
84022;BME280;74108;48.636;9.492;2024-02-23T12:14:08;96055.63;;;8.66;56.71
84022;BME280;74108;48.636;9.492;2024-02-23T12:16:34;96063.75;;;8.64;57.65
84022;BME280;74108;48.636;9.492;2024-02-23T12:19:03;96064.06;;;8.86;56.20
84022;BME280;74108;48.636;9.492;2024-02-23T12:21:29;96055.75;;;9.03;57.18
84022;BME280;74108;48.636;9.492;2024-02-23T12:23:54;96051.75;;;8.87;56.05
84022;BME280;74108;48.636;9.492;2024-02-23T12:26:20;96050.25;;;8.81;56.15
84022;BME280;74108;48.636;9.492;2024-02-23T12:28:46;96053.09;;;8.61;57.62
84022;BME280;74108;48.636;9.492;2024-02-23T12:31:11;96065.25;;;8.46;56.81
84022;BME280;74108;48.636;9.492;2024-02-23T12:33:38;96069.19;;;8.44;57.89
84022;BME280;74108;48.636;9.492;2024-02-23T12:36:07;96053.69;;;8.53;58.36
84022;BME280;74108;48.636;9.492;2024-02-23T12:38:34;96052.91;;;8.52;56.82
84022;BME280;74108;48.636;9.492;2024-02-23T12:41:00;96049.09;;;8.68;56.94
84022;BME280;74108;48.636;9.492;2024-02-23T12:43:26;96047.25;;;8.92;57.28
84022;BME280;74108;48.636;9.492;2024-02-23T12:45:53;96049.13;;;9.10;55.73
84022;BME280;74108;48.636;9.492;2024-02-23T12:48:20;96046.91;;;8.99;55.31
84022;BME280;74108;48.636;9.492;2024-02-23T12:50:46;96046.91;;;8.99;nan
84022;BME280;74108;48.636;9.492;2024-02-23T12:53:33;96053.81;;;9.13;55.32
84022;BME280;74108;48.636;9.492;2024-02-23T12:56:10;96052.53;;;9.11;56.36
84022;BME280;74108;48.636;9.492;2024-02-23T12:58:40;96042.72;;;8.98;56.63
84022;BME280;74108;48.636;9.492;2024-02-23T13:01:06;96038.75;;;8.82;57.89
84022;BME280;74108;48.636;9.492;2024-02-23T13:03:32;96039.81;;;8.81;57.76
84022;BME280;74108;48.636;9.492;2024-02-23T13:05:58;96035.03;;;8.64;58.90